Time;durP1;ratioP1;P1;durP2;ratioP2;P2;SDS_P1;SDS_P2;PMS_P1;PMS_P2;Temp;Humidity;BMP_temperature;BMP_pressure;BME280_temperature;BME280_humidity;BME280_pressure;Samples;Min_cycle;Max_cycle;Signal;HPM_P1;HPM_P2
2023/04/12 00:01:45;;;;;;;8.00;2.70;;;4.60;99.90;;;;;;5245744;28;20444;-50
2023/04/12 00:04:16;;;;;;;3.63;1.80;;;4.50;99.90;;;;;;5247305;28;20673;-50
2023/04/12 00:06:47;;;;;;;4.03;2.33;;;4.50;99.90;;;;;;5246817;28;20192;-51
2023/04/12 00:09:18;;;;;;;7.90;5.10;;;4.50;99.90;;;;;;5238175;28;20188;-51
2023/04/12 00:11:48;;;;;;;3.43;2.80;;;4.50;99.90;;;;;;5246454;28;20806;-51
2023/04/12 00:14:19;;;;;;;3.83;3.50;;;4.50;99.90;;;;;;5240435;28;20637;-50
2023/04/12 00:16:51;;;;;;;4.10;2.70;;;4.40;99.90;;;;;;5236737;28;20189;-50
2023/04/12 00:19:24;;;;;;;2.50;2.30;;;4.40;99.90;;;;;;5247905;28;20505;-49
2023/04/12 00:21:55;;;;;;;2.40;2.20;;;4.30;99.90;;;;;;5240092;28;20518;-51
2023/04/12 00:24:26;;;;;;;1.73;1.63;;;4.30;99.90;;;;;;5233688;28;20568;-51
2023/04/12 00:26:57;;;;;;;4.27;1.80;;;4.10;99.90;;;;;;5237442;28;20450;-50
2023/04/12 00:29:27;;;;;;;2.50;2.17;;;4.10;99.90;;;;;;5231922;28;20280;-51
2023/04/12 00:32:00;;;;;;;3.17;2.80;;;4.20;99.90;;;;;;5237916;28;20531;-50
2023/04/12 00:34:31;;;;;;;2.40;2.30;;;4.20;99.90;;;;;;5240458;28;20223;-50
2023/04/12 00:37:01;;;;;;;5.40;2.67;;;4.10;99.90;;;;;;5245640;28;20428;-52
2023/04/12 00:39:32;;;;;;;3.50;2.30;;;4.10;99.90;;;;;;5245876;28;20188;-51
2023/04/12 00:42:04;;;;;;;3.37;3.00;;;4.10;99.90;;;;;;5241634;28;20220;-50
2023/04/12 00:44:34;;;;;;;4.10;2.40;;;4.10;99.90;;;;;;5240202;28;20214;-51
2023/04/12 00:47:06;;;;;;;14.57;2.10;;;4.10;99.90;;;;;;5242377;28;20438;-51
2023/04/12 00:49:37;;;;;;;2.80;2.57;;;4.00;99.90;;;;;;5243808;28;20275;-50
2023/04/12 00:52:09;;;;;;;5.07;2.03;;;4.00;99.90;;;;;;5243366;28;20474;-51
2023/04/12 00:54:41;;;;;;;3.87;2.63;;;4.00;99.90;;;;;;5237317;28;20441;-51
2023/04/12 00:57:12;;;;;;;2.10;1.80;;;4.00;99.90;;;;;;5244925;28;20445;-50
2023/04/12 00:59:43;;;;;;;6.00;2.70;;;3.90;99.90;;;;;;5237278;28;20447;-50
2023/04/12 01:02:16;;;;;;;6.13;2.20;;;3.90;99.90;;;;;;5242323;28;20185;-49
2023/04/12 01:04:49;;;;;;;3.20;1.47;;;3.90;99.90;;;;;;5245160;28;20372;-51
2023/04/12 01:07:43;;;;;;;6.37;2.90;;;3.90;99.90;;;;;;5245745;28;20562;-51
2023/04/12 01:10:28;;;;;;;8.73;3.17;;;3.80;99.90;;;;;;5240803;28;20960;-51
2023/04/12 01:13:13;;;;;;;3.27;2.50;;;3.90;99.90;;;;;;5230336;28;20430;-50
2023/04/12 01:15:53;;;;;;;6.10;2.40;;;3.80;99.90;;;;;;5244443;28;20561;-51
2023/04/12 01:18:27;;;;;;;7.03;2.30;;;3.80;99.90;;;;;;5233750;28;20437;-50
2023/04/12 01:21:26;;;;;;;3.80;2.43;;;3.80;99.90;;;;;;5240921;28;20443;-50
2023/04/12 01:24:07;;;;;;;2.83;2.40;;;3.80;99.90;;;;;;5244570;28;21018;-50
2023/04/12 01:26:43;;;;;;;2.60;2.40;;;3.80;99.90;;;;;;5238912;28;20995;-50
2023/04/12 01:29:16;;;;;;;2.50;2.37;;;3.90;99.90;;;;;;5240949;28;20424;-50
2023/04/12 01:31:56;;;;;;;11.60;2.67;;;3.80;99.90;;;;;;5236289;28;20540;-50
2023/04/12 01:34:30;;;;;;;6.73;2.70;;;3.80;99.90;;;;;;5241353;28;20540;-49
2023/04/12 01:37:02;;;;;;;2.47;2.20;;;3.80;99.90;;;;;;5242133;28;20803;-51
2023/04/12 01:39:33;;;;;;;1.90;1.90;;;3.80;99.90;;;;;;5236326;28;20438;-51
2023/04/12 01:42:04;;;;;;;6.33;2.53;;;3.80;99.90;;;;;;5242352;28;20486;-50
2023/04/12 01:44:34;;;;;;;1.77;1.77;;;3.80;99.90;;;;;;5244667;28;20227;-51
2023/04/12 01:47:05;;;;;;;2.77;1.83;;;3.80;99.90;;;;;;5238045;28;20175;-50
2023/04/12 01:49:50;;;;;;;3.90;2.10;;;3.70;99.90;;;;;;5245506;28;20592;-50
2023/04/12 01:52:24;;;;;;;2.80;2.60;;;3.70;99.90;;;;;;5227277;28;20191;-51
2023/04/12 01:54:57;;;;;;;4.03;3.17;;;3.70;99.90;;;;;;5243134;28;20462;-51
2023/04/12 01:57:28;;;;;;;2.57;2.43;;;3.70;99.90;;;;;;5232145;28;20471;-50
2023/04/12 02:00:05;;;;;;;4.87;2.53;;;3.80;99.90;;;;;;5245410;28;20476;-51
2023/04/12 02:02:36;;;;;;;3.70;2.73;;;3.80;99.90;;;;;;5250086;28;20432;-50
2023/04/12 02:05:08;;;;;;;4.10;2.90;;;3.70;99.90;;;;;;5247952;28;20927;-52
2023/04/12 02:07:40;;;;;;;5.60;2.90;;;3.80;99.90;;;;;;5245718;28;20226;-50
2023/04/12 02:10:14;;;;;;;2.83;2.63;;;3.80;99.90;;;;;;5240994;28;20516;-50
2023/04/12 02:12:45;;;;;;;8.03;3.20;;;3.70;99.90;;;;;;5234409;28;20541;-50
2023/04/12 02:15:17;;;;;;;5.20;3.10;;;3.70;99.90;;;;;;5248642;28;20555;-50
2023/04/12 02:17:47;;;;;;;3.10;2.90;;;3.70;99.90;;;;;;5245826;28;20213;-49
2023/04/12 02:20:19;;;;;;;3.50;3.07;;;3.70;99.90;;;;;;5245595;28;20469;-50
2023/04/12 02:22:50;;;;;;;3.60;3.40;;;3.70;99.90;;;;;;5239640;28;20183;-49
2023/04/12 02:25:21;;;;;;;5.93;3.47;;;3.70;99.90;;;;;;5265851;28;20457;-50
2023/04/12 02:27:51;;;;;;;6.97;3.83;;;3.60;99.90;;;;;;5240065;28;20195;-50
2023/04/12 02:30:22;;;;;;;9.03;3.40;;;3.60;99.90;;;;;;5243526;28;20530;-49
2023/04/12 02:32:54;;;;;;;14.17;3.97;;;3.70;99.90;;;;;;5241444;28;20194;-50
2023/04/12 02:35:26;;;;;;;3.87;3.57;;;3.80;99.90;;;;;;5246332;28;20218;-50
2023/04/12 02:37:56;;;;;;;3.70;3.27;;;3.60;99.90;;;;;;5248024;28;20765;-51
2023/04/12 02:40:27;;;;;;;8.50;3.40;;;3.70;99.90;;;;;;5250073;28;20419;-50
2023/04/12 02:42:57;;;;;;;3.60;2.80;;;3.60;99.90;;;;;;5248252;28;20240;-49
2023/04/12 02:45:28;;;;;;;5.30;3.60;;;3.60;99.90;;;;;;5245552;28;20297;-50
2023/04/12 02:48:00;;;;;;;4.03;3.63;;;3.70;99.90;;;;;;5243542;28;20187;-50
2023/04/12 02:50:30;;;;;;;8.80;3.93;;;3.50;99.90;;;;;;5248226;28;20190;-50
2023/04/12 02:53:01;;;;;;;3.73;3.43;;;3.40;99.90;;;;;;5249979;28;20416;-49
2023/04/12 02:55:32;;;;;;;2.47;2.30;;;3.40;99.90;;;;;;5241469;28;20206;-51
2023/04/12 02:58:02;;;;;;;3.20;3.00;;;3.30;99.90;;;;;;5249285;28;20185;-51
2023/04/12 03:00:33;;;;;;;4.63;3.53;;;3.30;99.90;;;;;;5236071;28;20191;-49
2023/04/12 03:03:03;;;;;;;3.37;3.17;;;3.40;99.90;;;;;;5237539;28;20254;-50
2023/04/12 03:05:35;;;;;;;3.03;2.67;;;3.30;99.90;;;;;;5246617;28;20753;-50
2023/04/12 03:08:05;;;;;;;2.60;2.40;;;3.30;99.90;;;;;;5239047;28;20189;-49
2023/04/12 03:10:36;;;;;;;7.87;3.80;;;3.20;99.90;;;;;;5243963;28;20429;-50
2023/04/12 03:13:06;;;;;;;3.57;3.23;;;3.30;99.90;;;;;;5237362;28;20201;-49
2023/04/12 03:15:37;;;;;;;3.23;3.00;;;3.20;99.90;;;;;;5241497;28;20222;-50
2023/04/12 03:18:08;;;;;;;4.13;3.30;;;3.20;99.90;;;;;;5244113;28;20182;-50
2023/04/12 03:20:40;;;;;;;4.57;3.80;;;3.20;99.90;;;;;;5243962;28;20179;-50
2023/04/12 03:23:11;;;;;;;3.10;2.90;;;3.10;99.90;;;;;;5245617;28;20432;-49
2023/04/12 03:25:41;;;;;;;5.63;3.13;;;3.10;99.90;;;;;;5248024;28;20448;-50
2023/04/12 03:28:12;;;;;;;2.80;2.67;;;3.10;99.90;;;;;;5246482;28;20319;-50
2023/04/12 03:30:42;;;;;;;4.50;3.67;;;3.10;99.90;;;;;;5236303;28;20217;-50
2023/04/12 03:33:13;;;;;;;6.10;3.70;;;3.10;99.90;;;;;;5241264;28;20340;-51
2023/04/12 03:35:44;;;;;;;3.93;3.33;;;3.00;99.90;;;;;;5242821;28;20217;-50
2023/04/12 03:38:15;;;;;;;9.67;3.57;;;3.00;99.90;;;;;;5242243;28;20527;-51
2023/04/12 03:40:45;;;;;;;4.30;3.60;;;3.00;99.90;;;;;;5247858;28;20220;-50
2023/04/12 03:43:16;;;;;;;4.57;3.03;;;3.00;99.90;;;;;;5251571;28;20652;-49
2023/04/12 03:45:46;;;;;;;4.33;3.53;;;3.00;99.90;;;;;;5239752;28;20260;-49
2023/04/12 03:48:17;;;;;;;4.70;3.10;;;3.10;99.90;;;;;;5250143;28;20610;-50
2023/04/12 03:50:48;;;;;;;4.33;3.30;;;3.10;99.90;;;;;;5245180;28;20655;-50
2023/04/12 03:53:18;;;;;;;4.60;3.00;;;3.00;99.90;;;;;;5249636;28;20182;-50
2023/04/12 03:55:49;;;;;;;6.53;3.33;;;3.00;99.90;;;;;;5237840;28;20218;-50
2023/04/12 03:58:20;;;;;;;10.83;3.13;;;3.00;99.90;;;;;;5244627;28;20182;-50
2023/04/12 04:00:50;;;;;;;8.63;3.13;;;3.00;99.90;;;;;;5231218;28;20187;-49
2023/04/12 04:03:25;;;;;;;3.63;3.33;;;3.00;99.90;;;;;;5240613;28;20651;-49
2023/04/12 04:05:56;;;;;;;13.30;3.03;;;3.00;99.90;;;;;;5242941;28;20210;-50
2023/04/12 04:08:27;;;;;;;9.00;3.20;;;3.00;99.90;;;;;;5242540;28;20444;-50
2023/04/12 04:10:59;;;;;;;6.67;4.00;;;2.90;99.90;;;;;;5243225;28;20206;-49
2023/04/12 04:13:30;;;;;;;7.53;4.67;;;3.10;99.90;;;;;;5240219;28;20447;-50
2023/04/12 04:16:05;;;;;;;9.80;4.07;;;3.00;99.90;;;;;;5246698;28;20840;-50
2023/04/12 04:18:36;;;;;;;7.67;3.83;;;3.00;99.90;;;;;;5241978;28;20737;-49
2023/04/12 04:21:07;;;;;;;3.83;3.60;;;3.00;99.90;;;;;;5225947;28;20512;-49
2023/04/12 04:23:38;;;;;;;3.93;3.63;;;3.00;99.90;;;;;;5241848;28;20168;-49
2023/04/12 04:26:09;;;;;;;4.37;3.50;;;3.00;99.90;;;;;;5233737;28;20828;-50
2023/04/12 04:28:44;;;;;;;5.03;4.27;;;3.00;99.90;;;;;;5241724;28;20179;-50
2023/04/12 04:31:16;;;;;;;5.20;4.20;;;3.00;99.90;;;;;;5242521;28;20536;-50
2023/04/12 04:33:46;;;;;;;7.30;3.90;;;3.00;99.90;;;;;;5238021;28;20940;-52
2023/04/12 04:36:17;;;;;;;9.50;4.90;;;3.10;99.90;;;;;;5238062;28;20535;-51
2023/04/12 04:38:48;;;;;;;9.00;4.20;;;3.00;99.90;;;;;;5240881;28;20267;-51
2023/04/12 04:41:21;;;;;;;6.87;3.83;;;3.10;99.90;;;;;;5242458;28;20617;-50
2023/04/12 04:43:53;;;;;;;5.40;3.90;;;3.10;99.90;;;;;;5228688;28;20740;-51
2023/04/12 04:46:24;;;;;;;6.03;4.50;;;3.20;99.90;;;;;;5238325;28;20447;-49
2023/04/12 04:48:55;;;;;;;7.13;4.37;;;3.30;99.90;;;;;;5241086;28;20467;-50
2023/04/12 04:51:26;;;;;;;6.90;3.70;;;3.30;99.90;;;;;;5241898;28;20465;-50
2023/04/12 04:53:57;;;;;;;4.93;4.50;;;3.40;99.90;;;;;;5237905;28;20715;-50
2023/04/12 04:56:28;;;;;;;5.33;4.47;;;3.40;99.90;;;;;;5245829;28;20499;-50
2023/04/12 04:58:58;;;;;;;5.20;4.70;;;3.50;99.90;;;;;;5244544;28;20451;-50
2023/04/12 05:01:30;;;;;;;13.40;4.90;;;3.60;99.90;;;;;;5225211;28;20175;-50
2023/04/12 05:04:01;;;;;;;4.73;4.27;;;4.20;99.90;;;;;;5244652;22;20590;-52
2023/04/12 05:06:32;;;;;;;6.00;3.97;;;5.10;99.90;;;;;;5194186;28;20453;-52
2023/04/12 05:09:04;;;;;;;6.83;3.87;;;6.40;99.90;;;;;;5200073;28;20547;-51
2023/04/12 05:11:35;;;;;;;4.97;3.07;;;7.90;99.90;;;;;;5211085;28;20654;-53
2023/04/12 05:14:05;;;;;;;3.77;2.83;;;9.60;99.90;;;;;;5201861;28;20488;-52
2023/04/12 05:16:36;;;;;;;10.30;3.30;;;11.00;99.90;;;;;;5200974;28;20478;-52
2023/04/12 05:19:07;;;;;;;8.23;3.50;;;12.20;99.40;;;;;;5205347;28;20601;-51
2023/04/12 05:21:37;;;;;;;3.10;2.90;;;13.30;90.30;;;;;;5201404;28;20314;-52
2023/04/12 05:24:08;;;;;;;2.93;2.80;;;14.10;77.90;;;;;;5200405;28;20187;-52
2023/04/12 05:26:38;;;;;;;8.33;2.80;;;14.20;68.90;;;;;;5203237;28;20708;-53
2023/04/12 05:29:09;;;;;;;7.63;2.73;;;13.80;66.20;;;;;;5188744;28;20180;-51
2023/04/12 05:31:40;;;;;;;9.10;3.00;;;13.20;67.90;;;;;;5205951;28;20183;-53
2023/04/12 05:34:10;;;;;;;3.90;3.40;;;13.20;66.50;;;;;;5202903;28;20183;-51
2023/04/12 05:36:41;;;;;;;7.67;3.40;;;12.60;69.40;;;;;;5205692;28;20207;-51
2023/04/12 05:39:11;;;;;;;4.63;2.83;;;12.30;72.50;;;;;;5204877;28;20589;-51
2023/04/12 05:41:42;;;;;;;2.83;2.70;;;12.80;75.20;;;;;;5200438;28;20198;-53
2023/04/12 05:44:13;;;;;;;9.97;4.07;;;14.20;65.70;;;;;;5208188;28;20199;-52
2023/04/12 05:46:43;;;;;;;4.40;3.20;;;15.50;61.60;;;;;;5203832;28;20358;-51
2023/04/12 05:49:14;;;;;;;5.67;2.80;;;16.80;54.10;;;;;;5202274;28;20258;-53
2023/04/12 05:51:45;;;;;;;4.30;3.90;;;17.20;51.20;;;;;;5207954;28;20195;-53
2023/04/12 05:54:19;;;;;;;7.80;3.50;;;17.40;49.10;;;;;;5205898;28;20822;-51
2023/04/12 05:56:53;;;;;;;6.77;4.00;;;17.30;49.20;;;;;;5210190;28;20192;-52
2023/04/12 05:59:23;;;;;;;7.87;4.10;;;17.50;48.30;;;;;;5203854;28;20418;-53
2023/04/12 06:01:54;;;;;;;6.23;3.47;;;17.40;47.70;;;;;;5208767;28;20437;-52
2023/04/12 06:04:25;;;;;;;15.10;4.50;;;17.40;48.60;;;;;;5209393;28;20214;-52
2023/04/12 06:06:56;;;;;;;3.70;3.37;;;17.60;47.20;;;;;;5202932;28;20871;-53
2023/04/12 06:09:27;;;;;;;4.63;3.37;;;18.10;45.70;;;;;;5206743;28;20880;-53
2023/04/12 06:11:57;;;;;;;5.70;3.60;;;18.70;44.80;;;;;;5203484;28;20191;-54
2023/04/12 06:14:28;;;;;;;6.80;3.87;;;19.10;43.50;;;;;;5204932;28;20227;-54
2023/04/12 06:16:58;;;;;;;12.70;3.30;;;19.20;42.90;;;;;;5208008;28;20188;-53
2023/04/12 06:19:29;;;;;;;9.13;3.30;;;19.00;42.30;;;;;;5194318;28;20640;-52
2023/04/12 06:22:00;;;;;;;6.40;3.67;;;18.80;42.50;;;;;;5207578;28;20183;-53
2023/04/12 06:24:30;;;;;;;3.60;3.30;;;19.00;42.50;;;;;;5202940;28;20207;-53
2023/04/12 06:27:01;;;;;;;6.63;3.83;;;19.90;43.20;;;;;;5205156;28;20243;-54
2023/04/12 06:29:32;;;;;;;3.60;3.30;;;20.00;40.20;;;;;;5203265;28;20670;-52
2023/04/12 06:32:02;;;;;;;10.40;4.13;;;19.50;40.20;;;;;;5206871;28;20263;-52
2023/04/12 06:34:33;;;;;;;3.67;2.83;;;18.80;41.00;;;;;;5204614;28;20204;-53
2023/04/12 06:37:04;;;;;;;5.63;3.20;;;18.70;42.30;;;;;;5196155;28;20594;-52
2023/04/12 06:39:34;;;;;;;6.27;2.80;;;19.20;41.60;;;;;;5206152;28;20314;-53
2023/04/12 06:42:05;;;;;;;3.03;2.87;;;20.20;40.00;;;;;;5202774;28;20271;-53
2023/04/12 06:44:36;;;;;;;6.60;3.10;;;20.10;39.80;;;;;;5194740;28;20226;-54
2023/04/12 06:47:06;;;;;;;7.10;3.47;;;20.30;39.00;;;;;;5198987;28;20191;-53
2023/04/12 06:49:37;;;;;;;9.53;3.43;;;20.70;39.30;;;;;;5196044;28;20183;-53
2023/04/12 06:52:08;;;;;;;14.50;7.70;;;21.30;38.80;;;;;;5207039;28;20188;-53
2023/04/12 06:54:39;;;;;;;5.07;3.20;;;21.70;37.00;;;;;;5205394;28;21033;-55
2023/04/12 06:57:10;;;;;;;6.10;3.13;;;21.70;36.40;;;;;;5207082;28;20176;-53
2023/04/12 06:59:40;;;;;;;5.33;2.97;;;20.90;36.90;;;;;;5211322;28;20191;-51
2023/04/12 07:02:11;;;;;;;4.37;2.50;;;20.30;37.40;;;;;;5204124;28;20422;-53
2023/04/12 07:04:42;;;;;;;5.10;2.87;;;21.10;37.90;;;;;;5211733;28;20222;-53
2023/04/12 07:07:12;;;;;;;3.70;2.70;;;21.60;36.00;;;;;;5203126;28;20307;-54
2023/04/12 07:09:43;;;;;;;7.20;3.47;;;22.40;35.50;;;;;;5205808;28;20285;-53
2023/04/12 07:12:13;;;;;;;4.13;3.00;;;22.70;35.40;;;;;;5203344;28;20179;-53
2023/04/12 07:14:44;;;;;;;3.33;3.03;;;22.70;34.40;;;;;;5206710;28;20204;-56
2023/04/12 07:17:15;;;;;;;6.07;3.20;;;22.80;34.80;;;;;;5206413;28;20263;-52
2023/04/12 07:19:46;;;;;;;3.57;3.27;;;22.40;34.30;;;;;;5207341;28;20184;-52
2023/04/12 07:22:17;;;;;;;2.57;2.37;;;21.70;35.40;;;;;;5207425;28;20184;-52
2023/04/12 07:24:49;;;;;;;5.30;2.47;;;21.10;35.80;;;;;;5206454;28;20985;-53
2023/04/12 07:27:20;;;;;;;5.50;2.93;;;21.00;37.00;;;;;;5198382;28;20191;-52
2023/04/12 07:29:52;;;;;;;5.60;2.90;;;21.20;37.00;;;;;;5204412;28;20430;-53
2023/04/12 07:32:22;;;;;;;4.67;3.27;;;21.40;36.30;;;;;;5202124;28;20441;-54
2023/04/12 07:34:54;;;;;;;6.90;2.70;;;21.60;35.20;;;;;;5198356;28;20462;-53
2023/04/12 07:37:24;;;;;;;3.50;3.10;;;22.00;35.10;;;;;;5197280;28;20184;-54
2023/04/12 07:39:55;;;;;;;4.47;3.03;;;22.30;34.70;;;;;;5206583;28;20496;-53
2023/04/12 07:42:26;;;;;;;5.07;2.27;;;22.30;33.90;;;;;;5206805;28;20207;-52
2023/04/12 07:44:57;;;;;;;1.93;1.73;;;22.20;35.20;;;;;;5199278;28;20214;-54
2023/04/12 07:47:27;;;;;;;4.23;2.13;;;22.30;34.70;;;;;;5200528;28;20524;-54
2023/04/12 07:49:58;;;;;;;2.47;1.90;;;22.60;33.10;;;;;;5211010;28;20191;-55
2023/04/12 07:52:28;;;;;;;6.70;2.07;;;21.80;33.20;;;;;;5212487;28;20194;-53
2023/04/12 07:54:59;;;;;;;4.40;2.40;;;21.20;34.70;;;;;;5207676;28;20226;-52
2023/04/12 07:57:30;;;;;;;4.03;1.80;;;20.40;35.20;;;;;;5204061;28;20655;-53
2023/04/12 08:00:01;;;;;;;5.57;2.07;;;20.20;36.10;;;;;;5202602;28;20230;-53
2023/04/12 08:02:31;;;;;;;3.30;1.20;;;20.80;35.50;;;;;;5200004;28;20178;-52
2023/04/12 08:05:03;;;;;;;4.67;1.60;;;20.90;35.10;;;;;;5195989;28;20638;-51
2023/04/12 08:07:34;;;;;;;2.40;2.20;;;20.30;35.20;;;;;;5195355;28;20184;-52
2023/04/12 08:10:05;;;;;;;1.60;1.50;;;20.20;35.70;;;;;;5204987;28;20902;-54
2023/04/12 08:12:36;;;;;;;6.63;2.10;;;20.90;35.20;;;;;;5203761;28;20184;-55
2023/04/12 08:15:08;;;;;;;1.70;1.23;;;20.40;35.00;;;;;;5205210;28;20559;-52
2023/04/12 08:17:39;;;;;;;3.87;1.33;;;20.20;35.20;;;;;;5204203;28;20175;-52
2023/04/12 08:20:10;;;;;;;1.90;0.93;;;19.80;35.70;;;;;;5197638;28;20434;-53
2023/04/12 08:22:41;;;;;;;4.40;1.47;;;19.50;36.00;;;;;;5195390;28;20525;-54
2023/04/12 08:25:12;;;;;;;4.30;1.30;;;18.80;37.10;;;;;;5201166;28;20462;-54
2023/04/12 08:27:44;;;;;;;10.60;1.57;;;18.80;37.90;;;;;;5201333;28;20439;-53
2023/04/12 08:30:14;;;;;;;1.30;1.20;;;17.60;37.70;;;;;;5198196;28;20649;-52
2023/04/12 08:32:45;;;;;;;3.83;1.60;;;16.40;39.40;;;;;;5204785;28;20488;-53
2023/04/12 08:35:16;;;;;;;1.93;1.20;;;15.60;40.80;;;;;;5205424;28;20234;-53
2023/04/12 08:37:46;;;;;;;3.97;1.30;;;15.20;42.00;;;;;;5208913;28;20183;-52
2023/04/12 08:40:17;;;;;;;2.10;1.27;;;15.00;42.60;;;;;;5207536;28;20183;-54
2023/04/12 08:42:48;;;;;;;4.30;1.60;;;14.90;42.90;;;;;;5202850;28;20185;-53
2023/04/12 08:45:22;;;;;;;4.27;1.20;;;14.80;42.60;;;;;;5203612;28;20679;-52
2023/04/12 08:47:53;;;;;;;1.40;1.30;;;13.90;43.10;;;;;;5207226;28;20171;-54
2023/04/12 08:50:25;;;;;;;0.93;0.93;;;13.20;44.70;;;;;;5193828;28;20567;-53
2023/04/12 08:52:57;;;;;;;2.23;1.13;;;12.60;45.20;;;;;;5202471;28;20180;-53
2023/04/12 08:55:28;;;;;;;7.83;1.87;;;12.20;46.60;;;;;;5205903;28;20552;-52
2023/04/12 08:57:59;;;;;;;3.83;1.60;;;12.00;46.30;;;;;;5201193;28;20550;-52
2023/04/12 09:00:29;;;;;;;4.33;1.60;;;11.90;46.70;;;;;;5202187;28;20334;-50
2023/04/12 09:03:00;;;;;;;10.20;1.30;;;12.00;47.00;;;;;;5198096;28;20215;-51
2023/04/12 09:05:31;;;;;;;10.47;1.63;;;11.90;46.40;;;;;;5207229;28;20227;-52
2023/04/12 09:08:02;;;;;;;4.37;1.40;;;11.90;46.50;;;;;;5197696;28;20187;-52
2023/04/12 09:10:36;;;;;;;4.73;2.30;;;11.90;46.50;;;;;;5206771;28;20175;-52
2023/04/12 09:13:08;;;;;;;4.30;2.00;;;12.00;46.20;;;;;;5205365;28;20433;-52
2023/04/12 09:15:50;;;;;;;1.10;1.10;;;12.10;46.40;;;;;;5202164;28;20462;-52
2023/04/12 09:18:22;;;;;;;6.73;1.60;;;12.20;46.10;;;;;;5205725;28;20998;-52
2023/04/12 09:21:10;;;;;;;8.03;1.37;;;12.20;46.60;;;;;;5201088;28;20428;-53
2023/04/12 09:23:41;;;;;;;3.97;1.67;;;12.40;46.40;;;;;;5211491;28;20501;-53
2023/04/12 09:26:28;;;;;;;4.13;1.47;;;12.60;45.90;;;;;;5210820;28;20474;-53
2023/04/12 09:28:58;;;;;;;3.33;1.40;;;12.70;45.00;;;;;;5199100;28;20278;-53
2023/04/12 09:31:29;;;;;;;8.23;1.80;;;12.70;44.80;;;;;;5206715;28;20525;-53
2023/04/12 09:34:08;;;;;;;1.70;0.97;;;12.70;45.40;;;;;;5200962;28;20222;-54
2023/04/12 09:36:40;;;;;;;2.57;1.20;;;12.80;43.50;;;;;;5207021;28;20620;-52
2023/04/12 09:39:10;;;;;;;2.30;1.43;;;12.90;44.00;;;;;;5198826;28;20923;-54
2023/04/12 09:41:41;;;;;;;7.20;1.23;;;13.10;43.60;;;;;;5204920;28;20432;-53
2023/04/12 09:44:30;;;;;;;2.23;1.10;;;13.20;42.30;;;;;;5208068;28;20401;-54
2023/04/12 09:47:03;;;;;;;9.63;1.57;;;13.10;40.70;;;;;;5205457;28;20179;-52
2023/04/12 09:49:38;;;;;;;4.33;1.47;;;13.10;41.70;;;;;;5201279;28;20439;-53
2023/04/12 09:52:11;;;;;;;3.40;1.67;;;13.30;42.30;;;;;;5200484;28;20445;-52
2023/04/12 09:54:43;;;;;;;5.40;2.07;;;13.40;42.10;;;;;;5196501;28;20450;-52
2023/04/12 09:57:18;;;;;;;6.80;1.90;;;13.20;40.40;;;;;;5194819;28;20434;-53
2023/04/12 09:59:51;;;;;;;2.20;1.20;;;13.10;40.50;;;;;;5194459;28;20462;-51
2023/04/12 10:02:26;;;;;;;1.90;1.60;;;12.90;41.30;;;;;;5188982;28;20850;-54
2023/04/12 10:04:57;;;;;;;4.93;1.50;;;12.90;41.90;;;;;;5203864;28;20461;-51
2023/04/12 10:07:28;;;;;;;5.30;1.20;;;12.90;42.10;;;;;;5205699;28;20439;-51
2023/04/12 10:09:59;;;;;;;1.33;1.13;;;12.80;41.90;;;;;;5197441;28;20439;-52
2023/04/12 10:12:30;;;;;;;3.27;1.33;;;12.80;41.50;;;;;;5203574;28;20195;-54
2023/04/12 10:15:12;;;;;;;6.17;1.67;;;12.90;41.60;;;;;;5181859;28;20469;-52
2023/04/12 10:17:46;;;;;;;8.83;1.83;;;13.00;40.80;;;;;;5197640;28;20183;-53
2023/04/12 10:20:18;;;;;;;2.43;1.10;;;13.20;41.50;;;;;;5195642;28;20829;-52
2023/04/12 10:22:51;;;;;;;2.63;1.07;;;13.20;41.30;;;;;;5207432;28;20441;-52
2023/04/12 10:25:24;;;;;;;4.00;1.30;;;13.20;41.10;;;;;;5198326;28;20483;-53
2023/04/12 10:27:55;;;;;;;1.57;1.20;;;13.20;41.60;;;;;;5204740;28;20426;-52
2023/04/12 10:30:28;;;;;;;8.20;1.60;;;13.20;41.00;;;;;;5206247;28;20429;-52
2023/04/12 10:33:01;;;;;;;7.63;1.70;;;13.40;41.70;;;;;;5206385;28;20444;-53
2023/04/12 10:35:48;;;;;;;2.73;1.63;;;13.40;41.40;;;;;;5207757;28;20957;-51
2023/04/12 10:38:19;;;;;;;4.43;1.20;;;13.50;41.70;;;;;;5208350;28;20434;-53
2023/04/12 10:41:13;;;;;;;8.43;2.03;;;13.60;41.90;;;;;;5188308;28;20435;-53
2023/04/12 10:43:48;;;;;;;2.00;1.57;;;13.70;40.80;;;;;;5200842;28;20438;-52
2023/04/12 10:46:37;;;;;;;3.33;1.40;;;13.60;40.50;;;;;;5205678;28;20461;-54
2023/04/12 10:49:12;;;;;;;3.03;1.63;;;13.60;41.30;;;;;;5204381;28;21001;-54
2023/04/12 10:52:01;;;;;;;2.77;1.40;;;13.90;41.60;;;;;;5208165;28;20461;-52
2023/04/12 10:54:36;;;;;;;3.37;1.60;;;13.80;40.10;;;;;;5199034;28;20454;-54
2023/04/12 10:57:26;;;;;;;6.13;1.73;;;13.90;40.60;;;;;;5205025;28;20430;-52
2023/04/12 10:59:58;;;;;;;2.20;1.60;;;14.10;40.40;;;;;;5204330;28;20422;-52
2023/04/12 11:02:29;;;;;;;1.60;1.17;;;14.00;40.10;;;;;;5204771;28;20430;-55
2023/04/12 11:05:04;;;;;;;4.93;1.30;;;14.00;40.60;;;;;;5206823;28;20837;-54
2023/04/12 11:07:41;;;;;;;5.07;1.60;;;14.20;39.80;;;;;;5195853;28;20827;-53
2023/04/12 11:10:18;;;;;;;3.97;1.50;;;14.30;40.40;;;;;;5202180;28;20427;-53
2023/04/12 11:12:54;;;;;;;4.27;2.30;;;14.50;39.50;;;;;;5201682;28;20522;-53
2023/04/12 11:15:33;;;;;;;3.77;1.53;;;14.70;40.00;;;;;;5200514;28;20551;-53
2023/04/12 11:18:05;;;;;;;2.77;1.10;;;14.90;39.30;;;;;;5203431;28;20413;-54
2023/04/12 11:20:38;;;;;;;3.43;1.60;;;14.70;38.60;;;;;;5202036;28;20434;-53
2023/04/12 11:23:10;;;;;;;10.40;1.87;;;14.60;39.90;;;;;;5190104;28;20522;-52
2023/04/12 11:25:41;;;;;;;3.90;1.20;;;14.40;39.00;;;;;;5198137;28;20465;-53
2023/04/12 11:28:17;;;;;;;3.67;1.50;;;14.40;40.20;;;;;;5200892;28;20429;-54
2023/04/12 11:30:52;;;;;;;1.67;1.20;;;14.40;40.50;;;;;;5203957;28;20233;-53
2023/04/12 11:33:40;;;;;;;12.50;1.33;;;14.60;39.70;;;;;;5190998;28;20417;-54
2023/04/12 11:36:12;;;;;;;2.40;1.37;;;14.90;39.40;;;;;;5204875;28;20466;-55
2023/04/12 11:38:44;;;;;;;1.30;1.20;;;14.80;38.90;;;;;;5196384;28;20434;-53
2023/04/12 11:41:17;;;;;;;1.73;1.30;;;14.90;39.60;;;;;;5185649;28;20515;-55
2023/04/12 11:43:47;;;;;;;6.10;1.30;;;15.00;40.10;;;;;;5206603;28;20430;-54
2023/04/12 11:46:18;;;;;;;1.20;1.13;;;15.20;38.90;;;;;;5203071;28;20823;-54
2023/04/12 11:48:49;;;;;;;1.63;1.27;;;15.30;39.00;;;;;;5205524;28;20184;-54
2023/04/12 11:51:23;;;;;;;3.13;1.20;;;15.20;39.00;;;;;;5195924;28;20180;-54
2023/04/12 11:53:55;;;;;;;2.13;1.40;;;15.20;38.80;;;;;;5201784;28;20445;-55
2023/04/12 11:56:28;;;;;;;2.83;1.50;;;15.20;38.50;;;;;;5204735;28;20488;-54
2023/04/12 11:58:59;;;;;;;5.67;1.33;;;15.40;38.50;;;;;;5198513;28;20457;-53
2023/04/12 12:01:31;;;;;;;3.80;1.53;;;15.40;38.50;;;;;;5206125;28;20442;-53
2023/04/12 12:04:02;;;;;;;6.83;2.10;;;15.30;38.10;;;;;;5207525;28;20194;-54
2023/04/12 12:06:32;;;;;;;1.23;1.13;;;15.30;38.20;;;;;;5207143;28;20511;-55
2023/04/12 12:09:03;;;;;;;3.07;1.20;;;15.60;39.00;;;;;;5202276;28;20453;-53
2023/04/12 12:11:34;;;;;;;1.00;1.00;;;15.70;37.70;;;;;;5214991;28;20196;-53
2023/04/12 12:14:07;;;;;;;2.40;1.13;;;15.80;37.10;;;;;;5203324;28;20203;-56
2023/04/12 12:16:40;;;;;;;6.27;1.47;;;15.90;36.70;;;;;;5205207;28;20996;-54
2023/04/12 12:19:10;;;;;;;2.57;1.20;;;16.00;36.60;;;;;;5200577;28;20923;-54
2023/04/12 12:21:41;;;;;;;3.53;1.30;;;15.90;36.30;;;;;;5202286;28;20438;-53
2023/04/12 12:24:13;;;;;;;1.60;1.40;;;15.90;37.20;;;;;;5205045;28;20282;-53
2023/04/12 12:26:44;;;;;;;2.23;1.17;;;15.70;37.70;;;;;;5206351;28;20179;-53
2023/04/12 12:29:18;;;;;;;1.10;1.00;;;15.50;36.80;;;;;;5208724;28;20492;-53
2023/04/12 12:31:49;;;;;;;1.77;1.20;;;15.20;37.00;;;;;;5205006;28;20291;-53
2023/04/12 12:34:19;;;;;;;2.50;1.33;;;14.90;37.70;;;;;;5203175;28;20550;-52
2023/04/12 12:36:56;;;;;;;1.63;1.53;;;14.80;37.90;;;;;;5203711;28;20200;-52
2023/04/12 12:39:27;;;;;;;9.47;1.77;;;14.90;38.30;;;;;;5197731;28;20652;-53
2023/04/12 12:41:59;;;;;;;2.10;1.47;;;15.10;38.20;;;;;;5202279;28;20832;-54
2023/04/12 12:44:29;;;;;;;3.43;1.90;;;15.20;37.70;;;;;;5198303;28;20551;-55
2023/04/12 12:47:00;;;;;;;4.70;1.50;;;15.50;38.00;;;;;;5200390;28;20438;-54
2023/04/12 12:49:31;;;;;;;7.10;1.63;;;15.80;38.30;;;;;;5197589;28;20680;-52
2023/04/12 12:52:02;;;;;;;3.00;1.47;;;15.70;37.00;;;;;;5188150;28;20474;-54
2023/04/12 12:54:33;;;;;;;3.30;1.67;;;15.70;37.50;;;;;;5204926;28;20207;-54
2023/04/12 12:57:03;;;;;;;5.23;1.87;;;15.90;37.40;;;;;;5185337;28;20269;-55
2023/04/12 12:59:34;;;;;;;1.37;1.10;;;16.00;36.90;;;;;;5200658;28;20190;-53
2023/04/12 13:02:06;;;;;;;3.13;1.60;;;15.80;37.50;;;;;;5204085;28;20180;-54
2023/04/12 13:04:36;;;;;;;4.70;1.50;;;15.80;37.70;;;;;;5202142;28;20208;-52
2023/04/12 13:07:07;;;;;;;4.23;1.40;;;15.80;37.70;;;;;;5200647;28;20809;-54
2023/04/12 13:09:37;;;;;;;3.27;1.30;;;15.80;37.30;;;;;;5198948;28;20178;-55
2023/04/12 13:12:08;;;;;;;1.50;1.17;;;15.80;37.90;;;;;;5207365;28;20687;-54
2023/04/12 13:14:40;;;;;;;7.00;1.67;;;15.80;37.90;;;;;;5199600;28;20199;-54
2023/04/12 13:17:11;;;;;;;3.13;1.40;;;16.00;37.40;;;;;;5202181;28;20237;-53